Time;durP1;ratioP1;P1;durP2;ratioP2;P2;SDS_P1;SDS_P2;PMS_P1;PMS_P2;Temp;Humidity;BMP_temperature;BMP_pressure;BME280_temperature;BME280_humidity;BME280_pressure;Samples;Min_cycle;Max_cycle;Signal;HPM_P1;HPM_P2
2021/08/29 00:01:36;;;;;;;7.85;3.25;;;;;;;;;;4319041;33;20177;-78
2021/08/29 00:04:01;;;;;;;10.50;3.75;;;;;;;;;;4318133;33;20687;-78
2021/08/29 00:06:34;;;;;;;12.18;3.37;;;;;;;;;;4318366;33;20172;-78
2021/08/29 00:09:05;;;;;;;5.43;3.40;;;;;;;;;;4318506;33;20596;-78
2021/08/29 00:11:31;;;;;;;10.35;3.60;;;;;;;;;;4318802;33;20195;-78
2021/08/29 00:13:56;;;;;;;8.70;3.58;;;;;;;;;;4354822;32;20171;-78
2021/08/29 00:16:22;;;;;;;10.63;3.45;;;;;;;;;;4347634;33;20206;-78
2021/08/29 00:18:57;;;;;;;5.50;3.40;;;;;;;;;;4347641;33;20185;-78
2021/08/29 00:21:23;;;;;;;8.68;3.60;;;;;;;;;;4361868;32;20478;-78
2021/08/29 00:24:01;;;;;;;8.65;3.70;;;;;;;;;;4347614;33;20217;-78
2021/08/29 00:26:32;;;;;;;11.95;4.25;;;;;;;;;;4346640;33;20162;-78
2021/08/29 00:28:57;;;;;;;10.07;3.80;;;;;;;;;;4347493;33;20152;-77
2021/08/29 00:32:18;;;;;;;;;;;;;;;;;;;;;
2021/08/29 00:34:11;;;;;;;13.88;3.75;;;;;;;;;;4347616;32;20514;-78
2021/08/29 00:36:39;;;;;;;10.60;3.58;;;;;;;;;;4347241;33;20233;-78
2021/08/29 00:39:13;;;;;;;11.45;3.75;;;;;;;;;;4347241;33;20189;-78
2021/08/29 00:41:42;;;;;;;9.88;3.75;;;;;;;;;;4347560;33;20158;-78
2021/08/29 00:44:21;;;;;;;;;;;;;;;;;;;;;
2021/08/29 00:49:43;;;;;;;10.25;4.18;;;;;;;;;;4337033;33;20311;-80
2021/08/29 00:52:10;;;;;;;9.18;3.50;;;;;;;;;;4347227;33;20173;-79
2021/08/29 00:54:41;;;;;;;10.13;3.65;;;;;;;;;;4346694;33;20148;-79
2021/08/29 00:57:14;;;;;;;14.40;4.20;;;;;;;;;;4347480;33;20170;-78
2021/08/29 00:59:41;;;;;;;9.05;3.80;;;;;;;;;;4347141;33;20159;-78
2021/08/29 01:02:26;;;;;;;11.32;4.10;;;;;;;;;;4341869;33;20151;-78
2021/08/29 01:04:58;;;;;;;11.32;3.80;;;;;;;;;;4356864;33;20593;-78
2021/08/29 01:07:47;;;;;;;16.23;4.07;;;;;;;;;;4357275;32;20152;-78
2021/08/29 01:10:15;;;;;;;9.85;3.42;;;;;;;;;;4330323;33;20597;-78
2021/08/29 01:12:43;;;;;;;12.00;4.20;;;;;;;;;;4332189;33;20151;-78
2021/08/29 01:15:16;;;;;;;9.77;4.05;;;;;;;;;;4332094;33;20228;-78
2021/08/29 01:17:46;;;;;;;11.20;3.65;;;;;;;;;;4332228;33;20590;-79
2021/08/29 01:20:31;;;;;;;10.20;3.55;;;;;;;;;;4332668;33;20221;-79
2021/08/29 01:22:57;;;;;;;6.87;3.92;;;;;;;;;;4356640;32;20193;-78
2021/08/29 01:25:26;;;;;;;7.20;3.15;;;;;;;;;;4332155;33;20159;-78
2021/08/29 01:30:57;;;;;;;6.53;3.62;;;;;;;;;;4360450;32;20571;-78
2021/08/29 01:33:23;;;;;;;7.43;3.47;;;;;;;;;;4346622;33;20186;-78
2021/08/29 01:36:00;;;;;;;10.38;3.87;;;;;;;;;;4346628;33;20155;-79
2021/08/29 01:38:38;;;;;;;10.05;3.95;;;;;;;;;;4346572;33;20177;-79
2021/08/29 01:41:17;;;;;;;9.10;4.07;;;;;;;;;;4347043;33;20151;-78
2021/08/29 01:46:36;;;;;;;8.40;4.20;;;;;;;;;;4321356;33;20244;-78
2021/08/29 01:49:25;;;;;;;10.65;4.37;;;;;;;;;;4346999;32;20166;-79
2021/08/29 01:52:03;;;;;;;11.45;4.32;;;;;;;;;;4346602;33;20163;-79
2021/08/29 01:54:45;;;;;;;9.82;4.45;;;;;;;;;;4358941;32;20170;-78
2021/08/29 01:57:19;;;;;;;10.07;4.28;;;;;;;;;;4346689;33;20244;-79
2021/08/29 01:59:44;;;;;;;7.90;3.92;;;;;;;;;;4346647;33;20194;-79
2021/08/29 02:02:11;;;;;;;9.70;3.62;;;;;;;;;;4346726;33;20198;-79
2021/08/29 02:04:37;;;;;;;13.35;3.72;;;;;;;;;;4346950;33;20185;-79
2021/08/29 02:07:24;;;;;;;6.50;3.53;;;;;;;;;;4346455;33;20167;-79
2021/08/29 02:09:51;;;;;;;7.40;3.40;;;;;;;;;;4347013;33;20167;-79
2021/08/29 02:12:17;;;;;;;6.12;3.03;;;;;;;;;;4346228;33;20511;-78
2021/08/29 02:15:08;;;;;;;8.50;3.37;;;;;;;;;;4356278;33;20230;-78
2021/08/29 02:17:55;;;;;;;12.10;3.55;;;;;;;;;;4313708;33;20586;-78
2021/08/29 02:20:22;;;;;;;7.00;3.37;;;;;;;;;;4301453;33;20649;-78
2021/08/29 02:22:57;;;;;;;7.25;3.28;;;;;;;;;;4330670;33;20500;-78
2021/08/29 02:25:22;;;;;;;7.40;3.17;;;;;;;;;;4344370;33;20180;-78
2021/08/29 02:28:02;;;;;;;6.12;3.65;;;;;;;;;;4344581;33;20163;-78
2021/08/29 02:30:28;;;;;;;10.50;3.53;;;;;;;;;;4331674;33;20238;-79
2021/08/29 02:32:55;;;;;;;9.63;3.62;;;;;;;;;;4343854;33;20167;-79
2021/08/29 02:35:23;;;;;;;4.93;3.30;;;;;;;;;;4344018;33;20222;-79
2021/08/29 02:37:49;;;;;;;12.35;3.62;;;;;;;;;;4343813;33;20177;-79
2021/08/29 02:40:15;;;;;;;8.05;3.80;;;;;;;;;;4356148;33;20156;-78
2021/08/29 02:42:40;;;;;;;6.97;3.50;;;;;;;;;;4343366;33;20155;-79
2021/08/29 02:45:09;;;;;;;7.47;3.30;;;;;;;;;;4344593;33;20155;-78
2021/08/29 02:50:29;;;;;;;8.75;3.67;;;;;;;;;;4344904;33;20177;-78
2021/08/29 02:53:08;;;;;;;;;;;;;;;;;;;;;
2021/08/29 02:55:42;;;;;;;10.45;3.35;;;;;;;;;;4345635;33;20234;-78
2021/08/29 02:58:11;;;;;;;6.15;3.65;;;;;;;;;;4343767;33;20147;-78
2021/08/29 03:00:51;;;;;;;11.93;3.28;;;;;;;;;;4343640;33;20185;-78
2021/08/29 03:03:19;;;;;;;8.15;3.20;;;;;;;;;;4346781;33;20160;-78
2021/08/29 03:05:45;;;;;;;7.87;3.53;;;;;;;;;;4346230;33;20177;-78
2021/08/29 03:08:10;;;;;;;10.93;3.62;;;;;;;;;;4345888;33;20191;-78
2021/08/29 03:10:35;;;;;;;7.57;3.17;;;;;;;;;;4346418;33;20214;-78
2021/08/29 03:13:02;;;;;;;6.97;3.40;;;;;;;;;;4358317;32;20690;-78
2021/08/29 03:15:30;;;;;;;6.93;3.40;;;;;;;;;;4346661;33;20234;-78
2021/08/29 03:18:02;;;;;;;7.05;3.37;;;;;;;;;;4341764;33;20608;-78
2021/08/29 03:20:30;;;;;;;10.98;3.30;;;;;;;;;;4347742;32;20287;-78
2021/08/29 03:22:55;;;;;;;8.10;3.12;;;;;;;;;;4346572;33;20178;-78
2021/08/29 03:25:41;;;;;;;8.07;3.08;;;;;;;;;;4346984;33;20163;-78
2021/08/29 03:28:07;;;;;;;8.00;3.53;;;;;;;;;;4346367;33;20155;-78
2021/08/29 03:30:32;;;;;;;10.93;3.78;;;;;;;;;;4346867;33;20652;-78
2021/08/29 03:32:58;;;;;;;5.43;3.45;;;;;;;;;;4345951;33;20151;-78
2021/08/29 03:35:31;;;;;;;8.15;3.70;;;;;;;;;;4345891;33;20151;-78
2021/08/29 03:37:57;;;;;;;6.47;3.60;;;;;;;;;;4345991;33;20163;-78
2021/08/29 03:40:29;;;;;;;9.40;3.40;;;;;;;;;;4345873;33;20144;-78
2021/08/29 03:46:07;;;;;;;9.23;3.05;;;;;;;;;;4346940;33;20162;-78
2021/08/29 03:48:33;;;;;;;6.75;2.95;;;;;;;;;;4346570;33;20151;-78
2021/08/29 03:51:14;;;;;;;7.57;3.00;;;;;;;;;;4345747;33;20182;-78
2021/08/29 03:53:42;;;;;;;5.95;2.80;;;;;;;;;;4346280;33;20214;-79
2021/08/29 03:56:08;;;;;;;9.00;2.87;;;;;;;;;;4357821;33;20151;-79
2021/08/29 03:58:35;;;;;;;7.87;2.83;;;;;;;;;;4345635;33;20155;-79
2021/08/29 04:01:00;;;;;;;12.05;3.67;;;;;;;;;;4346452;33;20582;-79
2021/08/29 04:03:35;;;;;;;8.98;2.75;;;;;;;;;;4347585;33;20198;-80
2021/08/29 04:06:01;;;;;;;6.90;2.80;;;;;;;;;;4346260;33;20278;-78
2021/08/29 04:08:42;;;;;;;8.48;3.00;;;;;;;;;;4345860;33;20183;-79
2021/08/29 04:11:12;;;;;;;10.43;3.25;;;;;;;;;;4358126;32;20658;-79
2021/08/29 04:13:47;;;;;;;8.13;2.70;;;;;;;;;;4345602;33;20175;-78
2021/08/29 04:16:20;;;;;;;8.43;2.47;;;;;;;;;;4345419;33;20175;-78
2021/08/29 04:18:49;;;;;;;10.10;3.03;;;;;;;;;;4345388;33;20619;-79
2021/08/29 04:21:24;;;;;;;9.63;2.70;;;;;;;;;;4340738;33;20183;-79
2021/08/29 04:23:58;;;;;;;9.15;2.95;;;;;;;;;;4345402;33;20213;-79
2021/08/29 04:26:26;;;;;;;8.57;2.65;;;;;;;;;;4345225;33;20189;-79
2021/08/29 04:29:02;;;;;;;11.95;2.67;;;;;;;;;;4345121;33;20287;-78
2021/08/29 04:31:29;;;;;;;8.18;2.70;;;;;;;;;;4345399;33;20262;-78
2021/08/29 04:34:39;;;;;;;11.00;3.00;;;;;;;;;;4345010;33;20478;-79
2021/08/29 04:36:57;;;;;;;8.35;2.90;;;;;;;;;;4341020;33;20171;-79
2021/08/29 04:39:25;;;;;;;7.37;2.87;;;;;;;;;;4344853;33;20172;-79
2021/08/29 04:41:52;;;;;;;7.93;2.65;;;;;;;;;;4344981;33;20271;-78
2021/08/29 04:44:18;;;;;;;6.35;2.60;;;;;;;;;;4344869;33;20179;-78
2021/08/29 04:47:01;;;;;;;9.68;2.90;;;;;;;;;;4345301;33;20232;-78
2021/08/29 04:49:36;;;;;;;;;;;;;;;;;;;;;
2021/08/29 04:52:05;;;;;;;9.05;2.90;;;;;;;;;;4346440;33;20442;-78
2021/08/29 04:54:31;;;;;;;12.07;3.20;;;;;;;;;;4344713;33;20290;-78
2021/08/29 04:56:56;;;;;;;8.90;2.83;;;;;;;;;;4347654;33;20208;-78
2021/08/29 04:59:21;;;;;;;10.85;2.72;;;;;;;;;;4360681;32;20576;-78
2021/08/29 05:01:47;;;;;;;9.85;2.50;;;;;;;;;;4360178;32;20155;-77
2021/08/29 05:04:32;;;;;;;9.82;2.80;;;;;;;;;;4360603;32;20571;-77
2021/08/29 05:06:57;;;;;;;9.95;3.25;;;;;;;;;;4347478;33;20611;-78
2021/08/29 05:09:23;;;;;;;14.65;2.70;;;;;;;;;;4361035;32;20124;-78
2021/08/29 05:11:49;;;;;;;9.13;3.00;;;;;;;;;;4360887;32;20456;-78
2021/08/29 05:14:43;;;;;;;9.90;2.55;;;;;;;;;;4347069;33;20317;-78
2021/08/29 05:18:16;;;;;;;10.93;2.70;;;;;;;;;;4359163;33;20178;-77
2021/08/29 05:20:35;;;;;;;8.27;2.53;;;;;;;;;;4350196;33;20166;-78
2021/08/29 05:23:04;;;;;;;11.12;2.83;;;;;;;;;;4346856;33;20202;-78
2021/08/29 05:25:29;;;;;;;8.48;2.72;;;;;;;;;;4360104;32;20140;-78
2021/08/29 05:28:05;;;;;;;;;;;;;;;;;;;;;
2021/08/29 05:30:41;;;;;;;7.60;2.90;;;;;;;;;;4351779;32;20520;-78
2021/08/29 05:33:15;;;;;;;8.90;2.75;;;;;;;;;;4361063;32;20169;-78
2021/08/29 05:35:49;;;;;;;9.50;3.00;;;;;;;;;;4359353;32;20216;-78
2021/08/29 05:38:37;;;;;;;12.18;2.92;;;;;;;;;;4361045;32;20119;-78
2021/08/29 05:41:03;;;;;;;11.52;2.90;;;;;;;;;;4360850;32;20309;-77
2021/08/29 05:43:28;;;;;;;9.32;2.75;;;;;;;;;;4360834;32;20155;-78
2021/08/29 05:46:14;;;;;;;10.88;2.60;;;;;;;;;;4371606;32;20514;-78
2021/08/29 05:48:47;;;;;;;9.00;2.85;;;;;;;;;;4360536;32;20162;-78
2021/08/29 05:51:15;;;;;;;10.55;2.70;;;;;;;;;;4371542;32;20218;-78
2021/08/29 05:53:40;;;;;;;8.20;2.53;;;;;;;;;;4371449;32;20167;-78
2021/08/29 05:56:06;;;;;;;7.93;2.62;;;;;;;;;;4369507;32;20159;-78
2021/08/29 05:58:31;;;;;;;9.80;2.85;;;;;;;;;;4334172;33;20197;-79
2021/08/29 06:00:59;;;;;;;6.35;2.17;;;;;;;;;;4346785;33;20155;-78
2021/08/29 06:03:25;;;;;;;10.20;2.30;;;;;;;;;;4359863;33;20189;-79
2021/08/29 06:05:50;;;;;;;12.57;2.78;;;;;;;;;;4360114;33;20159;-78
2021/08/29 06:08:15;;;;;;;10.27;2.87;;;;;;;;;;4346879;33;20181;-79
2021/08/29 06:10:40;;;;;;;8.38;2.75;;;;;;;;;;4358907;33;20667;-79
2021/08/29 06:13:06;;;;;;;9.07;2.58;;;;;;;;;;4359419;33;20159;-78
2021/08/29 06:15:34;;;;;;;10.02;2.70;;;;;;;;;;4358968;33;20190;-79
2021/08/29 06:17:59;;;;;;;10.48;2.33;;;;;;;;;;4358800;33;20162;-79
2021/08/29 06:20:25;;;;;;;10.50;2.70;;;;;;;;;;4359141;33;20177;-79
2021/08/29 06:22:51;;;;;;;9.48;2.92;;;;;;;;;;4359884;33;20174;-78
2021/08/29 06:25:25;;;;;;;9.73;2.60;;;;;;;;;;4360124;33;20495;-78
2021/08/29 06:27:50;;;;;;;9.20;2.55;;;;;;;;;;4360494;33;20495;-78
2021/08/29 06:30:16;;;;;;;11.52;2.78;;;;;;;;;;4359066;33;20167;-78
2021/08/29 06:32:41;;;;;;;10.10;2.90;;;;;;;;;;4346214;33;20643;-78
2021/08/29 06:35:09;;;;;;;12.55;2.47;;;;;;;;;;4358625;33;20296;-78
2021/08/29 06:37:40;;;;;;;15.93;3.60;;;;;;;;;;4361396;32;20515;-78
2021/08/29 06:40:09;;;;;;;7.40;2.30;;;;;;;;;;4349223;33;20619;-78
2021/08/29 06:42:34;;;;;;;11.52;2.92;;;;;;;;;;4349489;33;20179;-78
2021/08/29 06:45:06;;;;;;;9.10;2.60;;;;;;;;;;4348931;33;20572;-78
2021/08/29 06:47:31;;;;;;;11.35;2.70;;;;;;;;;;4362926;32;20504;-78
2021/08/29 06:49:57;;;;;;;8.90;2.60;;;;;;;;;;4348993;33;20155;-78
2021/08/29 06:52:22;;;;;;;11.43;2.47;;;;;;;;;;4349365;33;20182;-76
2021/08/29 06:54:50;;;;;;;8.48;2.30;;;;;;;;;;4348876;33;20200;-78
2021/08/29 06:57:25;;;;;;;9.30;2.35;;;;;;;;;;4362609;32;20139;-76
2021/08/29 06:59:51;;;;;;;11.25;2.28;;;;;;;;;;4362969;32;20119;-77
2021/08/29 07:02:40;;;;;;;11.85;2.67;;;;;;;;;;4348780;32;20574;-78
2021/08/29 07:05:10;;;;;;;10.27;2.47;;;;;;;;;;4362296;33;20152;-77
2021/08/29 07:07:41;;;;;;;9.27;2.22;;;;;;;;;;4361145;32;20170;-77
2021/08/29 07:10:07;;;;;;;9.75;2.83;;;;;;;;;;4363173;32;20149;-78
2021/08/29 07:12:41;;;;;;;14.20;2.40;;;;;;;;;;4362136;32;20132;-77
2021/08/29 07:15:24;;;;;;;8.25;2.22;;;;;;;;;;4348897;33;20668;-77
2021/08/29 07:17:52;;;;;;;8.68;2.55;;;;;;;;;;4363086;32;20139;-77
2021/08/29 07:23:53;;;;;;;10.52;3.65;;;;;;;;;;4316519;33;20695;-78
2021/08/29 07:35:24;;;;;;;10.15;2.40;;;;;;;;;;4330813;33;20155;-77
2021/08/29 07:38:12;;;;;;;9.50;2.90;;;;;;;;;;4330189;33;20499;-76
2021/08/29 07:40:39;;;;;;;7.50;2.33;;;;;;;;;;4350245;32;20228;-79
2021/08/29 07:43:08;;;;;;;8.02;2.55;;;;;;;;;;4360394;32;20159;-79
2021/08/29 07:45:33;;;;;;;10.27;2.35;;;;;;;;;;4360628;32;20171;-78
2021/08/29 07:48:06;;;;;;;14.32;2.80;;;;;;;;;;4360224;32;20627;-78
2021/08/29 07:50:39;;;;;;;9.27;2.35;;;;;;;;;;4360675;32;20216;-79
2021/08/29 07:53:17;;;;;;;8.70;2.30;;;;;;;;;;4373368;32;20152;-79
2021/08/29 07:55:53;;;;;;;7.22;2.60;;;;;;;;;;4373433;32;20163;-79
2021/08/29 07:58:18;;;;;;;9.57;2.58;;;;;;;;;;4360877;33;20182;-79
2021/08/29 08:01:12;;;;;;;;;;;;;;;;;;;;;
2021/08/29 08:03:47;;;;;;;6.50;2.40;;;;;;;;;;4361406;32;20186;-79
2021/08/29 08:06:18;;;;;;;8.25;2.75;;;;;;;;;;4360310;33;20162;-79
2021/08/29 08:09:03;;;;;;;;;;;;;;;;;;;;;
2021/08/29 08:11:32;;;;;;;10.57;2.87;;;;;;;;;;4355871;33;20169;-80
2021/08/29 08:14:26;;;;;;;9.02;2.65;;;;;;;;;;4347457;33;20183;-80
2021/08/29 08:17:07;;;;;;;;;;;;;;;;;;;;;
2021/08/29 08:19:59;;;;;;;12.13;2.70;;;;;;;;;;4360296;33;20143;-80
2021/08/29 08:22:56;;;;;;;10.57;2.62;;;;;;;;;;4358075;33;20580;-80
2021/08/29 08:28:36;;;;;;;8.60;2.65;;;;;;;;;;4362013;32;20198;-82
2021/08/29 08:31:13;;;;;;;10.95;2.72;;;;;;;;;;4361670;32;20217;-82
2021/08/29 08:39:30;;;;;;;;;;;;;;;;;;;;;
2021/08/29 08:42:07;;;;;;;7.97;2.40;;;;;;;;;;4336569;33;20246;-78
2021/08/29 08:50:50;;;;;;;9.10;2.50;;;;;;;;;;4360290;32;20165;-79
2021/08/29 08:53:27;;;;;;;11.35;2.80;;;;;;;;;;4346797;33;20163;-78
2021/08/29 08:56:15;;;;;;;11.02;2.92;;;;;;;;;;4347594;33;20288;-78
2021/08/29 09:05:04;;;;;;;11.60;2.97;;;;;;;;;;4314808;33;20242;-80
2021/08/29 09:08:05;;;;;;;;;;;;;;;;;;;;;
2021/08/29 09:11:19;;;;;;;10.35;2.90;;;;;;;;;;4310223;33;20214;-79
2021/08/29 09:14:09;;;;;;;11.38;2.45;;;;;;;;;;4244978;33;20184;-79
2021/08/29 09:25:40;;;;;;;11.65;2.95;;;;;;;;;;4278045;33;20257;-79
2021/08/29 09:28:21;;;;;;;9.68;2.80;;;;;;;;;;4285233;33;20152;-79
2021/08/29 09:31:19;;;;;;;9.52;2.45;;;;;;;;;;4285162;33;20159;-79
2021/08/29 09:34:07;;;;;;;17.15;3.37;;;;;;;;;;4306427;33;20156;-78
2021/08/29 09:37:09;;;;;;;9.55;2.60;;;;;;;;;;4341267;33;20164;-78
2021/08/29 09:42:50;;;;;;;10.13;2.35;;;;;;;;;;4360341;32;20496;-79
2021/08/29 09:45:30;;;;;;;12.15;2.55;;;;;;;;;;4358948;33;20253;-79
2021/08/29 09:48:06;;;;;;;11.88;2.70;;;;;;;;;;4359352;32;20154;-80
2021/08/29 10:00:31;;;;;;;;;;;;;;;;;;;;;
2021/08/29 10:03:08;;;;;;;10.60;2.45;;;;;;;;;;4327877;33;20155;-79
2021/08/29 10:05:34;;;;;;;9.55;2.70;;;;;;;;;;4358416;33;20185;-79
2021/08/29 10:08:25;;;;;;;8.80;2.90;;;;;;;;;;4359632;32;20159;-79
2021/08/29 10:11:12;;;;;;;7.97;2.42;;;;;;;;;;4346998;33;20167;-78
2021/08/29 10:13:39;;;;;;;7.57;2.30;;;;;;;;;;4362283;33;20163;-79
2021/08/29 10:16:22;;;;;;;12.02;2.37;;;;;;;;;;4360447;32;20159;-78
2021/08/29 10:18:58;;;;;;;10.18;2.53;;;;;;;;;;4366529;32;20190;-79
2021/08/29 10:21:27;;;;;;;9.30;2.50;;;;;;;;;;4345360;33;20163;-78
2021/08/29 10:24:04;;;;;;;11.25;2.87;;;;;;;;;;4347919;33;20155;-78
2021/08/29 10:26:59;;;;;;;;;;;;;;;;;;;;;
2021/08/29 10:32:42;;;;;;;10.35;2.55;;;;;;;;;;4331633;33;20174;-79
2021/08/29 10:35:08;;;;;;;10.88;2.87;;;;;;;;;;4318496;33;20231;-78
2021/08/29 10:41:20;;;;;;;9.50;2.17;;;;;;;;;;4354196;33;20151;-79
2021/08/29 10:44:18;;;;;;;;;;;;;;;;;;;;;
2021/08/29 10:50:23;;;;;;;14.13;3.15;;;;;;;;;;4273273;33;20602;-79
2021/08/29 10:52:57;;;;;;;14.15;3.03;;;;;;;;;;4232666;33;20181;-79
2021/08/29 10:55:48;;;;;;;12.63;2.85;;;;;;;;;;4286944;33;20164;-79
2021/08/29 11:08:23;;;;;;;13.62;3.70;;;;;;;;;;4286790;33;20172;-78
2021/08/29 11:14:06;;;;;;;12.68;2.70;;;;;;;;;;4242514;33;20179;-79
2021/08/29 11:16:35;;;;;;;10.75;2.62;;;;;;;;;;4235424;33;20236;-79
2021/08/29 11:19:13;;;;;;;12.57;3.12;;;;;;;;;;4272609;33;20169;-78
2021/08/29 11:21:44;;;;;;;11.25;2.67;;;;;;;;;;4272290;33;20197;-78
2021/08/29 11:24:12;;;;;;;18.17;3.20;;;;;;;;;;4279987;33;20165;-79
2021/08/29 11:29:53;;;;;;;11.32;2.37;;;;;;;;;;4291374;33;20237;-79
2021/08/29 11:35:57;;;;;;;13.50;3.00;;;;;;;;;;4277411;33;20175;-78
2021/08/29 11:38:39;;;;;;;13.00;3.05;;;;;;;;;;4344072;33;20151;-79
2021/08/29 11:41:40;;;;;;;15.70;3.47;;;;;;;;;;4326348;33;20210;-79
2021/08/29 11:44:24;;;;;;;11.73;2.78;;;;;;;;;;4258741;33;20172;-79
2021/08/29 11:46:52;;;;;;;17.60;2.78;;;;;;;;;;4286675;33;20227;-79
2021/08/29 11:49:42;;;;;;;14.65;3.45;;;;;;;;;;4274594;33;20232;-78
2021/08/29 11:52:09;;;;;;;13.27;2.90;;;;;;;;;;4285787;33;20511;-78
2021/08/29 11:54:58;;;;;;;11.80;2.97;;;;;;;;;;4274878;33;20184;-78
2021/08/29 11:57:42;;;;;;;13.62;2.97;;;;;;;;;;4271980;33;20142;-79
2021/08/29 12:00:13;;;;;;;10.07;3.12;;;;;;;;;;4231976;33;20196;-79
2021/08/29 12:02:51;;;;;;;11.85;3.30;;;;;;;;;;4233670;33;20191;-78
2021/08/29 12:05:19;;;;;;;18.10;3.50;;;;;;;;;;4246149;33;20169;-77
2021/08/29 12:08:01;;;;;;;17.33;3.65;;;;;;;;;;4245608;33;20237;-77
2021/08/29 12:10:35;;;;;;;15.02;3.47;;;;;;;;;;4257980;33;20161;-78
2021/08/29 12:13:03;;;;;;;8.70;2.90;;;;;;;;;;4245845;33;20149;-77
2021/08/29 12:15:29;;;;;;;12.23;3.00;;;;;;;;;;4257400;33;20185;-78
2021/08/29 12:18:01;;;;;;;11.10;3.10;;;;;;;;;;4245480;33;20164;-78
2021/08/29 12:20:27;;;;;;;18.65;3.80;;;;;;;;;;4305602;33;20182;-78
2021/08/29 12:22:52;;;;;;;14.27;4.03;;;;;;;;;;4342620;33;20219;-79
2021/08/29 12:25:21;;;;;;;13.27;3.75;;;;;;;;;;4342488;33;20190;-79
2021/08/29 12:27:47;;;;;;;12.07;3.28;;;;;;;;;;4342329;33;20166;-79
2021/08/29 12:30:13;;;;;;;16.27;3.50;;;;;;;;;;4332002;33;20538;-79
2021/08/29 12:32:38;;;;;;;12.32;3.37;;;;;;;;;;4344987;33;20190;-79
2021/08/29 12:35:10;;;;;;;17.02;3.95;;;;;;;;;;4344777;33;20511;-78
2021/08/29 12:38:06;;;;;;;14.15;3.33;;;;;;;;;;4342217;33;20159;-79
2021/08/29 12:40:39;;;;;;;12.40;3.25;;;;;;;;;;4330391;33;20221;-78
2021/08/29 12:43:08;;;;;;;14.02;3.67;;;;;;;;;;4330208;33;20164;-79
2021/08/29 12:49:01;;;;;;;14.95;3.37;;;;;;;;;;4310822;33;20187;-78
2021/08/29 12:51:42;;;;;;;;;;;;;;;;;;;;;
2021/08/29 12:54:11;;;;;;;16.27;4.30;;;;;;;;;;4316325;33;20179;-78
2021/08/29 12:56:42;;;;;;;16.20;4.37;;;;;;;;;;4315217;33;20160;-77
2021/08/29 12:59:07;;;;;;;17.60;4.68;;;;;;;;;;4315459;33;20490;-78
2021/08/29 13:01:35;;;;;;;12.37;4.10;;;;;;;;;;4315220;33;20280;-78
2021/08/29 13:04:32;;;;;;;;;;;;;;;;;;;;;
2021/08/29 13:07:06;;;;;;;12.73;4.80;;;;;;;;;;4316608;33;20156;-78
2021/08/29 13:12:40;;;;;;;13.52;4.80;;;;;;;;;;4304258;33;20164;-79
2021/08/29 13:15:08;;;;;;;14.52;5.75;;;;;;;;;;4333713;33;20234;-78
2021/08/29 13:18:20;;;;;;;14.10;4.53;;;;;;;;;;4331974;33;20190;-79
2021/08/29 13:20:58;;;;;;;;;;;;;;;;;;;;;
2021/08/29 13:24:10;;;;;;;;;;;;;;;;;;;;;
2021/08/29 13:27:06;;;;;;;13.70;5.10;;;;;;;;;;4319887;33;20151;-78
2021/08/29 13:29:39;;;;;;;18.67;5.30;;;;;;;;;;4348759;33;20154;-79
2021/08/29 13:32:16;;;;;;;13.93;4.45;;;;;;;;;;4359353;33;20178;-79
2021/08/29 13:34:49;;;;;;;13.32;4.70;;;;;;;;;;4359076;32;20507;-78
2021/08/29 13:37:24;;;;;;;15.90;4.97;;;;;;;;;;4359287;32;20651;-79
2021/08/29 13:39:57;;;;;;;16.62;4.70;;;;;;;;;;4359595;32;20151;-78
2021/08/29 13:42:23;;;;;;;14.07;4.53;;;;;;;;;;4371833;32;20253;-77
2021/08/29 13:45:00;;;;;;;17.02;4.70;;;;;;;;;;4358735;32;20181;-80
2021/08/29 13:47:26;;;;;;;16.95;4.95;;;;;;;;;;4355557;33;20185;-79
2021/08/29 13:50:02;;;;;;;11.77;4.87;;;;;;;;;;4360721;32;20568;-81
2021/08/29 13:52:33;;;;;;;16.12;5.45;;;;;;;;;;4359181;33;20169;-78
2021/08/29 13:55:35;;;;;;;;;;;;;;;;;;;;;
2021/08/29 13:58:01;;;;;;;12.40;4.90;;;;;;;;;;4347573;32;20166;-79
2021/08/29 14:00:37;;;;;;;16.23;4.55;;;;;;;;;;4358988;33;20167;-79
2021/08/29 14:03:05;;;;;;;11.65;5.10;;;;;;;;;;4358996;33;20232;-79
2021/08/29 14:05:34;;;;;;;13.82;4.75;;;;;;;;;;4358724;33;20163;-80
2021/08/29 14:08:04;;;;;;;15.70;5.18;;;;;;;;;;4358598;33;20494;-79
2021/08/29 14:10:35;;;;;;;14.38;5.18;;;;;;;;;;4359024;33;20159;-79
2021/08/29 14:13:06;;;;;;;9.60;3.92;;;;;;;;;;4359503;33;20193;-80
2021/08/29 14:15:31;;;;;;;12.00;4.05;;;;;;;;;;4359937;33;20209;-79
2021/08/29 14:17:59;;;;;;;11.27;4.32;;;;;;;;;;4358695;33;20226;-80
2021/08/29 14:29:03;;;;;;;16.40;5.10;;;;;;;;;;4359490;32;20174;-78
2021/08/29 14:31:33;;;;;;;10.85;4.47;;;;;;;;;;4359946;32;20157;-77
2021/08/29 14:34:07;;;;;;;10.57;4.65;;;;;;;;;;4371919;32;20197;-78
2021/08/29 14:36:41;;;;;;;13.05;4.50;;;;;;;;;;4358780;33;20191;-77
2021/08/29 14:44:55;;;;;;;18.65;5.47;;;;;;;;;;4359716;33;20575;-78
2021/08/29 14:47:20;;;;;;;13.15;5.07;;;;;;;;;;4370643;32;20178;-77
2021/08/29 14:53:22;;;;;;;12.75;5.65;;;;;;;;;;4356790;33;20189;-78
2021/08/29 14:55:55;;;;;;;13.40;5.78;;;;;;;;;;4357739;33;20261;-77
2021/08/29 14:58:50;;;;;;;11.65;5.40;;;;;;;;;;4360312;32;20213;-77
2021/08/29 15:01:38;;;;;;;14.07;5.95;;;;;;;;;;4359732;32;20214;-79
2021/08/29 15:06:52;;;;;;;15.32;6.45;;;;;;;;;;4359757;32;20274;-80
2021/08/29 15:09:33;;;;;;;;;;;;;;;;;;;;;
2021/08/29 15:12:24;;;;;;;15.27;6.72;;;;;;;;;;4364512;32;20478;-80
2021/08/29 15:15:10;;;;;;;15.18;6.25;;;;;;;;;;4358960;32;20533;-80
2021/08/29 15:17:39;;;;;;;12.90;6.07;;;;;;;;;;4363154;32;20158;-80
2021/08/29 15:20:05;;;;;;;13.50;7.00;;;;;;;;;;4348876;33;20237;-80
2021/08/29 15:22:43;;;;;;;12.68;6.05;;;;;;;;;;4361504;33;20186;-82
2021/08/29 15:25:08;;;;;;;15.50;6.57;;;;;;;;;;4362383;32;20248;-81
2021/08/29 15:27:34;;;;;;;15.27;6.22;;;;;;;;;;4362254;32;20128;-78
2021/08/29 15:30:02;;;;;;;16.58;6.72;;;;;;;;;;4361039;32;20447;-78
2021/08/29 15:32:56;;;;;;;12.43;5.65;;;;;;;;;;4348285;33;20178;-80
2021/08/29 15:35:25;;;;;;;10.68;5.93;;;;;;;;;;4362447;32;20140;-79
2021/08/29 15:38:15;;;;;;;;;;;;;;;;;;;;;
2021/08/29 15:40:49;;;;;;;11.27;5.60;;;;;;;;;;4361920;32;20202;-80
2021/08/29 15:43:16;;;;;;;9.93;5.22;;;;;;;;;;4361914;32;20500;-80
2021/08/29 15:45:47;;;;;;;15.05;5.15;;;;;;;;;;4348482;33;20209;-79
2021/08/29 15:48:13;;;;;;;10.13;4.93;;;;;;;;;;4348052;33;20632;-79
2021/08/29 15:50:53;;;;;;;14.13;5.75;;;;;;;;;;4361495;32;20151;-79
2021/08/29 15:54:04;;;;;;;9.40;5.30;;;;;;;;;;4360420;33;20155;-78
2021/08/29 15:56:29;;;;;;;8.65;5.30;;;;;;;;;;4359523;33;20171;-79
2021/08/29 15:59:00;;;;;;;10.40;5.40;;;;;;;;;;4362066;32;20146;-79
2021/08/29 16:01:35;;;;;;;15.55;5.47;;;;;;;;;;4361724;32;20498;-79
2021/08/29 16:04:03;;;;;;;8.75;5.00;;;;;;;;;;4360206;33;20170;-79
2021/08/29 16:06:28;;;;;;;10.60;4.70;;;;;;;;;;4347690;33;20209;-79
2021/08/29 16:08:56;;;;;;;11.43;5.62;;;;;;;;;;4360012;32;20600;-78
2021/08/29 16:11:27;;;;;;;17.70;5.65;;;;;;;;;;4362402;32;20127;-79
2021/08/29 16:13:56;;;;;;;9.52;4.90;;;;;;;;;;4347946;33;20206;-78
2021/08/29 16:16:31;;;;;;;;;;;;;;;;;;;;;
2021/08/29 16:18:57;;;;;;;8.57;5.07;;;;;;;;;;4315275;33;20616;-79
2021/08/29 16:21:24;;;;;;;8.63;4.37;;;;;;;;;;4370639;32;20155;-80
2021/08/29 16:23:52;;;;;;;10.55;5.22;;;;;;;;;;4359756;32;20178;-78
2021/08/29 16:26:17;;;;;;;9.52;5.20;;;;;;;;;;4366147;32;20168;-80
2021/08/29 16:28:43;;;;;;;11.12;4.78;;;;;;;;;;4353895;33;20642;-78
2021/08/29 16:31:14;;;;;;;9.70;5.00;;;;;;;;;;4359798;33;20197;-79
2021/08/29 16:33:42;;;;;;;9.80;5.32;;;;;;;;;;4360292;33;20493;-78
2021/08/29 16:36:10;;;;;;;9.32;5.10;;;;;;;;;;4361482;32;20123;-78
2021/08/29 16:38:35;;;;;;;7.35;4.80;;;;;;;;;;4347384;33;20553;-78
2021/08/29 16:41:01;;;;;;;9.10;4.65;;;;;;;;;;4347640;33;20159;-78
2021/08/29 16:43:57;;;;;;;8.75;4.68;;;;;;;;;;4347235;33;20468;-78
2021/08/29 16:46:30;;;;;;;10.20;5.00;;;;;;;;;;4360233;32;20210;-78
2021/08/29 16:49:08;;;;;;;9.77;5.45;;;;;;;;;;4359630;32;20154;-78
2021/08/29 16:51:36;;;;;;;11.90;4.97;;;;;;;;;;4359451;33;20666;-79
2021/08/29 16:54:05;;;;;;;10.45;5.47;;;;;;;;;;4347397;33;20167;-78
2021/08/29 16:56:39;;;;;;;11.52;5.43;;;;;;;;;;4359639;33;20201;-78
2021/08/29 16:59:05;;;;;;;12.40;6.93;;;;;;;;;;4361264;32;20184;-77
2021/08/29 17:01:43;;;;;;;;;;;;;;;;;;;;;
2021/08/29 17:04:12;;;;;;;14.23;5.78;;;;;;;;;;4359259;32;20162;-78
2021/08/29 17:12:33;;;;;;;13.65;6.47;;;;;;;;;;4289642;33;20257;-79
2021/08/29 17:14:58;;;;;;;11.50;5.60;;;;;;;;;;4347948;33;20245;-78
2021/08/29 17:17:26;;;;;;;16.43;6.57;;;;;;;;;;4347360;33;20155;-78
2021/08/29 17:19:51;;;;;;;8.30;5.80;;;;;;;;;;4359007;32;20267;-79
2021/08/29 17:22:17;;;;;;;12.95;6.53;;;;;;;;;;4347412;33;20225;-78
2021/08/29 17:25:09;;;;;;;9.48;5.60;;;;;;;;;;4346529;33;20261;-79
2021/08/29 17:28:17;;;;;;;;;;;;;;;;;;;;;
2021/08/29 17:30:44;;;;;;;12.40;7.32;;;;;;;;;;4331178;33;20151;-79
2021/08/29 17:36:28;;;;;;;11.73;6.20;;;;;;;;;;4345753;33;20243;-79
2021/08/29 17:39:06;;;;;;;14.23;7.60;;;;;;;;;;4344351;33;20155;-78
2021/08/29 17:41:39;;;;;;;13.43;7.07;;;;;;;;;;4344421;33;20177;-79
2021/08/29 17:50:51;;;;;;;;;;;;;;;;;;;;;
2021/08/29 17:53:37;;;;;;;17.20;10.13;;;;;;;;;;4346145;33;20182;-79
2021/08/29 17:59:13;;;;;;;15.60;8.55;;;;;;;;;;4289019;33;20149;-81
2021/08/29 18:05:31;;;;;;;13.52;8.38;;;;;;;;;;4214181;34;20162;-80
2021/08/29 18:08:29;;;;;;;;;;;;;;;;;;;;;
2021/08/29 18:11:34;;;;;;;;;;;;;;;;;;;;;